createdAt,value
2023-02-04T00:00:23.233Z,94827.28
2023-02-04T00:02:52.872Z,94794.38
2023-02-04T00:05:21.923Z,94775.03
2023-02-04T00:07:49.949Z,94766.59
2023-02-04T00:10:18.949Z,94775.03
2023-02-04T00:12:46.848Z,94782.69
2023-02-04T00:15:14.818Z,94787.72
2023-02-04T00:17:42.838Z,94795.19
2023-02-04T00:20:12.912Z,94785.13
2023-02-04T00:22:40.870Z,94795.50
2023-02-04T00:25:09.917Z,94758.16
2023-02-04T00:27:37.894Z,94731.25
2023-02-04T00:30:06.997Z,94707.91
2023-02-04T00:32:34.886Z,94702.91
2023-02-04T00:35:04.713Z,94692.69
2023-02-04T00:37:34.204Z,94712.94
2023-02-04T00:40:02.311Z,94702.09
2023-02-04T00:42:30.273Z,94728.84
2023-02-04T00:44:58.377Z,94730.28
2023-02-04T00:47:26.547Z,94748.13
2023-02-04T00:49:59.537Z,94760.13
2023-02-04T00:52:27.525Z,94770.81
2023-02-04T00:54:56.768Z,94787.56
2023-02-04T00:57:24.578Z,94791.94
2023-02-04T00:59:52.510Z,94782.81
2023-02-04T01:02:20.882Z,94767.75
2023-02-04T01:04:48.930Z,94758.16
2023-02-04T01:07:17.036Z,94771.78
2023-02-04T01:09:45.077Z,94779.28
2023-02-04T01:12:14.532Z,94775.03
2023-02-04T01:14:42.607Z,94782.53
2023-02-04T01:17:10.681Z,94781.88
2023-02-04T01:19:40.971Z,94752.97
2023-02-04T01:22:08.909Z,94724.44
2023-02-04T01:24:36.825Z,94721.22
2023-02-04T01:27:05.132Z,94699.50
2023-02-04T01:29:34.612Z,94673.41
2023-02-04T01:32:02.618Z,94660.09
2023-02-04T01:34:31.658Z,94639.66
2023-02-04T01:36:59.552Z,94628.81
2023-02-04T01:39:27.529Z,94608.72
2023-02-04T01:41:55.774Z,94607.09
2023-02-04T01:44:23.843Z,94596.09
2023-02-04T01:46:53.248Z,94579.25
2023-02-04T01:49:23.312Z,94566.63
2023-02-04T01:51:51.535Z,94565.81
2023-02-04T01:54:21.605Z,94580.22
2023-02-04T01:56:51.768Z,94581.03
2023-02-04T01:59:22.045Z,94575.19
2023-02-04T02:01:51.979Z,94585.06
2023-02-04T02:04:24.859Z,94596.75
2023-02-04T02:06:57.275Z,94617.00
2023-02-04T02:09:25.781Z,94630.44
2023-02-04T02:11:53.762Z,94626.38
2023-02-04T02:14:22.725Z,94612.94
2023-02-04T02:16:50.754Z,94637.25
2023-02-04T02:19:27.351Z,94633.84
2023-02-04T02:22:03.578Z,94627.19
2023-02-04T02:24:35.008Z,94649.06
2023-02-04T02:27:10.028Z,94635.63
2023-02-04T02:32:19.313Z,94656.03
2023-02-04T02:34:48.054Z,94643.22
2023-02-04T02:37:15.970Z,94630.44
2023-02-04T02:39:46.392Z,94616.84
2023-02-04T02:42:17.589Z,94638.22
2023-02-04T02:44:46.570Z,94639.19
2023-02-04T02:47:16.205Z,94611.16
2023-02-04T02:49:44.896Z,94619.59
2023-02-04T02:52:14.805Z,94650.03
2023-02-04T02:54:45.119Z,94654.09
2023-02-04T02:57:15.965Z,94644.84
2023-02-04T02:59:44.688Z,94658.13
2023-02-04T03:02:19.201Z,94638.06
2023-02-04T03:04:52.722Z,94635.63
2023-02-04T03:07:22.382Z,94629.78
2023-02-04T03:09:53.616Z,94606.13
2023-02-04T03:12:21.641Z,94609.53
2023-02-04T03:14:49.653Z,94601.94
2023-02-04T03:17:17.871Z,94615.53
2023-02-04T03:19:45.764Z,94578.28
2023-02-04T03:22:13.876Z,94583.47
2023-02-04T03:24:42.456Z,94590.25
2023-02-04T03:27:11.788Z,94561.59
2023-02-04T03:29:44.436Z,94566.78
2023-02-04T03:32:12.624Z,94534.84
2023-02-04T03:34:40.557Z,94477.53
2023-02-04T03:37:08.796Z,94416.19
2023-02-04T03:39:38.464Z,94382.69
2023-02-04T03:42:06.322Z,94363.63
2023-02-04T03:44:35.930Z,94361.03
2023-02-04T03:47:03.892Z,94345.16
2023-02-04T03:49:32.294Z,94308.75
2023-02-04T03:52:00.301Z,94324.78
2023-02-04T03:54:28.167Z,94328.34
2023-02-04T03:56:55.885Z,94301.16
2023-02-04T03:59:23.835Z,94277.88
2023-02-04T04:01:53.478Z,94266.41
2023-02-04T04:04:21.524Z,94242.66
2023-02-04T04:06:49.532Z,94212.72
2023-02-04T04:09:17.375Z,94210.94
2023-02-04T04:11:45.378Z,94211.75
2023-02-04T04:14:15.860Z,94204.50
2023-02-04T04:16:43.733Z,94188.97
2023-02-04T04:19:13.004Z,94180.91
2023-02-04T04:21:41.084Z,94166.53
2023-02-04T04:24:09.200Z,94138.09
2023-02-04T04:26:37.130Z,94171.53
2023-02-04T04:29:05.436Z,94181.53
2023-02-04T04:31:33.662Z,94186.56
2023-02-04T04:34:02.105Z,94169.91
2023-02-04T04:36:31.543Z,94202.56
2023-02-04T04:38:59.870Z,94210.31
2023-02-04T04:41:27.878Z,94204.97
2023-02-04T04:43:55.826Z,94223.56
2023-02-04T04:46:23.943Z,94222.25
2023-02-04T04:48:51.779Z,94241.03
2023-02-04T04:51:19.713Z,94278.69
2023-02-04T04:53:49.122Z,94278.53
2023-02-04T04:56:19.191Z,94259.28
2023-02-04T04:58:47.501Z,94271.09
2023-02-04T05:01:15.377Z,94275.28
2023-02-04T05:03:43.495Z,94251.06
2023-02-04T05:06:13.217Z,94243.63
2023-02-04T05:08:41.122Z,94259.47
2023-02-04T05:11:10.438Z,94240.22
2023-02-04T05:13:38.420Z,94238.44
2023-02-04T05:16:06.812Z,94222.59
2023-02-04T05:18:34.888Z,94210.63
2023-02-04T05:21:03.245Z,94222.59
2023-02-04T05:23:31.454Z,94217.25
2023-02-04T05:25:59.547Z,94198.97
2023-02-04T05:28:28.753Z,94220.97
2023-02-04T05:30:56.647Z,94193.81
2023-02-04T05:33:24.598Z,94195.75
2023-02-04T05:35:52.560Z,94174.75
2023-02-04T05:38:20.529Z,94175.72
2023-02-04T05:40:48.444Z,94142.13
2023-02-04T05:43:18.772Z,94101.09
2023-02-04T05:45:48.351Z,94046.50
2023-02-04T05:48:16.391Z,94051.03
2023-02-04T05:50:44.200Z,94037.47
2023-02-04T05:53:12.140Z,94019.22
2023-02-04T05:55:40.093Z,94002.44
2023-02-04T05:58:08.139Z,93949.72
2023-02-04T06:00:36.027Z,93936.16
2023-02-04T06:03:06.464Z,93948.09
2023-02-04T06:05:34.429Z,93915.31
2023-02-04T06:08:02.953Z,93934.53
2023-02-04T06:10:31.156Z,93909.34
2023-02-04T06:12:59.477Z,93895.78
2023-02-04T06:15:27.522Z,93895.16
2023-02-04T06:17:55.369Z,93939.72
2023-02-04T06:20:24.633Z,93946.16
2023-02-04T06:22:54.498Z,93965.50
2023-02-04T06:25:22.521Z,93964.88
2023-02-04T06:27:50.555Z,93948.09
2023-02-04T06:30:19.744Z,93937.28
2023-02-04T06:32:47.770Z,93915.19
2023-02-04T06:35:18.877Z,93907.72
2023-02-04T06:37:48.998Z,93946.16
2023-02-04T06:40:17.044Z,93946.16
2023-02-04T06:42:44.792Z,93936.16
2023-02-04T06:45:12.862Z,93890.16
2023-02-04T06:47:40.936Z,93858.22
2023-02-04T06:50:09.686Z,93831.00
2023-02-04T06:52:37.642Z,93775.50
2023-02-04T06:55:10.276Z,93769.06
2023-02-04T06:57:38.357Z,93793.88
2023-02-04T07:00:07.064Z,93779.88
2023-02-04T07:02:35.093Z,93754.56
2023-02-04T07:05:03.014Z,93745.53
2023-02-04T07:07:30.931Z,93712.38
2023-02-04T07:09:58.789Z,93715.59
2023-02-04T07:12:28.244Z,93723.97
2023-02-04T07:14:56.154Z,93738.78
2023-02-04T07:17:24.625Z,93740.38
2023-02-04T07:19:52.976Z,93759.09
2023-02-04T07:22:20.762Z,93746.81
2023-02-04T07:24:48.557Z,93780.69
2023-02-04T07:27:16.400Z,93792.28
2023-02-04T07:29:45.474Z,93809.06
2023-02-04T07:32:13.546Z,93850.00
2023-02-04T07:34:41.425Z,93862.41
2023-02-04T07:37:09.298Z,93924.19
2023-02-04T07:39:37.207Z,93962.91
2023-02-04T07:42:05.031Z,93984.50
2023-02-04T07:44:32.908Z,94012.25
2023-02-04T07:47:02.007Z,94032.47
2023-02-04T07:49:30.014Z,94036.50
2023-02-04T07:51:58.188Z,94045.69
2023-02-04T07:54:26.618Z,94055.88
2023-02-04T07:56:54.536Z,94064.91
2023-02-04T07:59:22.299Z,94075.72
2023-02-04T08:01:50.172Z,94060.88
2023-02-04T08:04:19.531Z,94066.84
2023-02-04T08:06:47.397Z,94053.13
2023-02-04T08:09:15.486Z,94040.69
2023-02-04T08:11:43.459Z,94031.34
2023-02-04T08:14:11.728Z,94049.09
2023-02-04T08:16:39.731Z,94047.31
2023-02-04T08:19:07.605Z,94070.09
2023-02-04T08:21:37.178Z,94077.66
2023-02-04T08:24:05.691Z,94101.72
2023-02-04T08:26:33.601Z,94106.72
2023-02-04T08:29:01.497Z,94113.34
2023-02-04T08:31:29.368Z,94133.56
2023-02-04T08:33:57.268Z,94173.16
2023-02-04T08:36:25.224Z,94182.19
2023-02-04T08:38:54.536Z,94200.44
2023-02-04T08:41:22.659Z,94217.41
2023-02-04T08:43:50.656Z,94235.84
2023-02-04T08:46:18.589Z,94229.06
2023-02-04T08:48:46.615Z,94250.25
2023-02-04T08:51:14.787Z,94247.50
2023-02-04T08:53:42.549Z,94251.06
2023-02-04T08:56:16.719Z,94274.31
2023-02-04T08:58:45.685Z,94272.25
2023-02-04T09:01:14.005Z,94292.75
2023-02-04T09:03:42.231Z,94299.53
2023-02-04T09:06:10.079Z,94306.16
2023-02-04T09:08:38.551Z,94346.75
2023-02-04T09:11:06.412Z,94365.22
2023-02-04T09:13:35.525Z,94381.72
2023-02-04T09:16:03.581Z,94404.38
2023-02-04T09:18:32.608Z,94415.38
2023-02-04T09:21:00.697Z,94442.22
2023-02-04T09:23:28.521Z,94468.16
2023-02-04T09:25:56.363Z,94484.81
2023-02-04T09:28:24.248Z,94542.94
2023-02-04T09:30:53.754Z,94555.56
2023-02-04T09:33:21.544Z,94573.41
2023-02-04T09:35:49.356Z,94600.31
2023-02-04T09:38:17.114Z,94626.22
2023-02-04T09:40:48.640Z,94632.06
2023-02-04T09:43:21.455Z,94644.53
2023-02-04T09:45:50.732Z,94710.84
2023-02-04T09:48:20.264Z,94732.88
2023-02-04T09:50:48.227Z,94806.69
2023-02-04T09:53:21.299Z,94838.00
2023-02-04T09:55:51.588Z,94842.22
2023-02-04T09:58:21.641Z,94915.25
2023-02-04T10:00:57.801Z,94951.63
2023-02-04T10:03:27.277Z,94992.06
2023-02-04T10:05:55.058Z,95045.66
2023-02-04T10:08:29.237Z,95137.97
2023-02-04T10:10:58.144Z,95126.13
2023-02-04T10:13:32.705Z,95224.00
2023-02-04T10:16:01.913Z,95290.34
2023-02-04T10:18:33.729Z,95377.28
2023-02-04T10:21:13.660Z,95728.31
2023-02-04T10:23:43.414Z,96263.72
2023-02-04T10:26:12.708Z,96957.94
2023-02-04T10:28:41.247Z,97629.91
2023-02-04T10:31:29.677Z,98025.94
2023-02-04T10:34:06.454Z,98594.53
2023-02-04T10:36:34.777Z,98916.97
2023-02-04T10:39:03.317Z,99161.50
2023-02-04T10:41:31.552Z,99103.72
2023-02-04T10:44:07.721Z,99389.19
2023-02-04T10:46:35.514Z,99391.72
2023-02-04T10:49:07.460Z,99729.78
2023-02-04T10:51:35.282Z,99524.53
2023-02-04T10:54:20.624Z,99656.09
2023-02-04T10:56:49.107Z,100080.63
2023-02-04T10:59:26.809Z,100083.28
2023-02-04T11:01:56.261Z,100594.50
2023-02-04T11:04:25.800Z,100173.06
2023-02-04T11:06:54.401Z,100216.59
2023-02-04T11:09:22.756Z,100142.72
2023-02-04T11:11:51.911Z,100499.53
2023-02-04T11:14:26.164Z,100557.03
2023-02-04T11:16:54.852Z,100555.44
2023-02-04T11:19:35.319Z,100238.47
2023-02-04T11:22:09.984Z,100411.59
2023-02-04T11:24:38.129Z,100504.94
2023-02-04T11:27:22.154Z,100203.75
2023-02-04T11:29:50.161Z,99974.19
2023-02-04T11:32:35.398Z,99946.53
2023-02-04T11:35:24.064Z,100185.38
2023-02-04T11:37:52.022Z,100189.84
2023-02-04T11:40:38.995Z,99880.53
2023-02-04T11:43:12.636Z,99718.28
2023-02-04T11:45:42.020Z,99753.88
2023-02-04T11:48:14.726Z,99807.53
2023-02-04T11:50:45.203Z,99579.59
2023-02-04T11:53:13.648Z,99798.00
2023-02-04T11:55:47.589Z,99570.91
2023-02-04T11:58:17.568Z,99496.47
2023-02-04T12:00:46.183Z,99079.34
2023-02-04T12:03:26.267Z,98988.09
2023-02-04T12:05:56.219Z,98768.03
2023-02-04T12:08:31.761Z,98284.16
2023-02-04T12:11:07.559Z,97918.03
2023-02-04T12:13:46.975Z,97670.53
2023-02-04T12:16:14.905Z,97298.97
2023-02-04T12:18:42.901Z,97176.41
2023-02-04T12:21:12.160Z,96954.41
2023-02-04T12:23:40.278Z,96798.38
2023-02-04T12:26:08.664Z,96765.03
2023-02-04T12:28:36.621Z,96655.09
2023-02-04T12:31:04.881Z,96567.53
2023-02-04T12:33:32.752Z,96445.06
2023-02-04T12:36:00.560Z,96402.47
2023-02-04T12:38:30.031Z,96280.31
2023-02-04T12:40:58.195Z,96228.56
2023-02-04T12:43:28.388Z,96216.63
2023-02-04T12:45:56.408Z,96140.09
2023-02-04T12:48:26.011Z,96107.19
2023-02-04T12:50:53.918Z,96100.31
2023-02-04T12:53:21.931Z,96069.91
2023-02-04T12:55:51.592Z,96056.19
2023-02-04T12:58:19.441Z,96044.44
2023-02-04T13:00:47.952Z,96005.34
2023-02-04T13:03:16.009Z,95923.84
2023-02-04T13:05:46.898Z,95873.03
2023-02-04T13:08:14.970Z,95838.13
2023-02-04T13:10:44.872Z,95801.06
2023-02-04T13:13:14.065Z,95829.13
2023-02-04T13:15:41.925Z,95753.88
2023-02-04T13:18:09.784Z,95707.41
2023-02-04T13:20:37.917Z,95677.69
2023-02-04T13:23:05.770Z,95638.25
2023-02-04T13:25:33.906Z,95594.06
2023-02-04T13:28:02.095Z,95571.75
2023-02-04T13:30:31.793Z,95572.41
2023-02-04T13:32:59.831Z,95526.09
2023-02-04T13:35:27.944Z,95492.22
2023-02-04T13:37:56.603Z,95445.28
2023-02-04T13:40:24.488Z,95430.66
2023-02-04T13:42:52.431Z,95395.81
2023-02-04T13:45:20.680Z,95341.78
2023-02-04T13:47:50.233Z,95357.06
2023-02-04T13:50:18.305Z,95365.53
2023-02-04T13:52:46.334Z,95329.22
2023-02-04T13:55:14.450Z,95279.28
2023-02-04T13:57:42.495Z,95260.75
2023-02-04T14:00:11.619Z,95239.59
2023-02-04T14:02:39.662Z,95226.22
2023-02-04T14:05:08.924Z,95225.41
2023-02-04T14:07:36.837Z,95174.84
2023-02-04T14:10:05.508Z,95144.31
2023-02-04T14:12:33.548Z,95130.97
2023-02-04T14:15:01.704Z,95121.03
2023-02-04T14:17:29.535Z,95082.84
2023-02-04T14:19:57.709Z,95046.78
2023-02-04T14:22:27.060Z,95026.31
2023-02-04T14:24:54.870Z,94980.84
2023-02-04T14:27:22.790Z,94943.16
2023-02-04T14:29:50.740Z,94888.94
2023-02-04T14:32:18.568Z,94863.78
2023-02-04T14:34:46.466Z,94836.03
2023-02-04T14:37:14.403Z,94796.78
2023-02-04T14:39:43.624Z,94735.16
2023-02-04T14:42:11.616Z,94730.28
2023-02-04T14:44:39.482Z,94683.25
2023-02-04T14:47:07.317Z,94620.88
2023-02-04T14:49:37.230Z,94559.63
2023-02-04T14:52:05.908Z,94511.88
2023-02-04T14:54:33.823Z,94479.81
2023-02-04T14:57:05.887Z,94456.31
2023-02-04T14:59:33.959Z,94385.94
2023-02-04T15:02:01.991Z,94310.22
2023-02-04T15:04:39.266Z,94244.09
2023-02-04T15:07:07.468Z,94169.28
2023-02-04T15:09:35.523Z,94110.63
2023-02-04T15:12:05.359Z,94033.28
2023-02-04T15:14:33.404Z,94038.94
2023-02-04T15:17:01.322Z,93976.19
2023-02-04T15:19:29.245Z,93976.81
2023-02-04T15:21:57.151Z,93933.41
2023-02-04T15:24:26.802Z,93929.22
2023-02-04T15:26:54.804Z,93895.50
2023-02-04T15:29:24.212Z,93883.25
2023-02-04T15:31:52.303Z,93810.69
2023-02-04T15:34:20.407Z,93806.97
2023-02-04T15:36:48.303Z,93740.28
2023-02-04T15:39:16.190Z,93683.53
2023-02-04T15:41:44.237Z,93616.56
2023-02-04T15:44:12.832Z,93551.06
2023-02-04T15:46:42.233Z,93516.44
2023-02-04T15:49:10.157Z,93529.16
2023-02-04T15:51:38.276Z,93494.06
2023-02-04T15:54:06.177Z,93464.16
2023-02-04T15:56:33.996Z,93444.22
2023-02-04T15:59:02.583Z,93440.69
2023-02-04T16:01:30.564Z,93445.84
2023-02-04T16:04:00.835Z,93443.88
2023-02-04T16:06:28.686Z,93437.28
2023-02-04T16:08:56.481Z,93413.97
2023-02-04T16:11:24.228Z,93401.44
2023-02-04T16:13:52.035Z,93370.72
2023-02-04T16:16:20.329Z,93300.47
2023-02-04T16:18:48.100Z,93301.47
2023-02-04T16:21:17.236Z,93290.53
2023-02-04T16:23:45.039Z,93288.75
2023-02-04T16:26:12.816Z,93273.63
2023-02-04T16:28:40.593Z,93206.53
2023-02-04T16:31:10.095Z,93147.25
2023-02-04T16:33:37.912Z,93127.00
2023-02-04T16:36:08.444Z,93084.06
2023-02-04T16:38:38.836Z,92999.19
2023-02-04T16:41:07.085Z,93008.31
2023-02-04T16:43:34.882Z,93034.94
2023-02-04T16:46:02.954Z,93057.41
2023-02-04T16:48:30.757Z,93063.34
2023-02-04T16:50:58.599Z,93035.56
2023-02-04T16:53:26.526Z,93015.69
2023-02-04T16:55:55.827Z,92973.38
2023-02-04T16:58:23.903Z,92946.09
2023-02-04T17:00:51.653Z,92915.06
2023-02-04T17:03:19.378Z,92897.06
2023-02-04T17:05:47.171Z,92888.72
2023-02-04T17:08:17.270Z,92887.13
2023-02-04T17:11:03.006Z,92847.84
2023-02-04T17:13:32.280Z,92828.78
2023-02-04T17:16:01.665Z,92803.16
2023-02-04T17:18:32.872Z,92780.75
2023-02-04T17:21:02.787Z,92772.44
2023-02-04T17:23:30.569Z,92780.13
2023-02-04T17:25:58.481Z,92776.22
2023-02-04T17:28:26.340Z,92772.25
2023-02-04T17:30:55.738Z,92758.97
2023-02-04T17:33:23.666Z,92713.13
2023-02-04T17:35:51.488Z,92666.72
2023-02-04T17:38:19.384Z,92632.97
2023-02-04T17:40:47.735Z,92581.28
2023-02-04T17:43:15.493Z,92557.50
2023-02-04T17:45:43.829Z,92547.41
2023-02-04T17:48:12.985Z,92591.38
2023-02-04T17:50:40.898Z,92599.53
2023-02-04T17:53:09.134Z,92602.69
2023-02-04T17:55:39.410Z,92600.50
2023-02-04T17:58:15.499Z,92587.41
2023-02-04T18:00:44.758Z,92509.53
2023-02-04T18:03:16.256Z,92466.97
2023-02-04T18:05:47.049Z,92414.69
2023-02-04T18:08:17.476Z,92405.59
2023-02-04T18:10:46.853Z,92432.91
2023-02-04T18:13:17.296Z,92486.00
2023-02-04T18:15:47.363Z,92522.44
2023-02-04T18:18:23.035Z,92535.53
2023-02-04T18:20:58.490Z,92530.75
2023-02-04T18:23:28.630Z,92490.75
2023-02-04T18:26:00.421Z,92489.53
2023-02-04T18:28:28.352Z,92460.44
2023-02-04T18:31:00.019Z,92403.03
2023-02-04T18:33:32.898Z,92367.63
2023-02-04T18:36:02.703Z,92331.19
2023-02-04T18:38:34.373Z,92334.41
2023-02-04T18:41:22.876Z,92364.09
2023-02-04T18:44:00.626Z,92369.03
2023-02-04T18:46:30.900Z,92398.13
2023-02-04T18:49:09.072Z,92390.59
2023-02-04T18:51:41.134Z,92364.09
2023-02-04T18:54:33.818Z,92385.47
2023-02-04T18:57:28.984Z,92363.28
2023-02-04T19:00:28.614Z,92311.03
2023-02-04T19:02:58.823Z,92246.75
2023-02-04T19:05:32.178Z,92186.88
2023-02-04T19:08:21.880Z,92177.97
2023-02-04T19:10:51.277Z,92154.84
2023-02-04T19:13:21.509Z,92127.56
2023-02-04T19:15:57.783Z,92086.88
2023-02-04T19:18:28.376Z,92046.38
2023-02-04T19:21:09.612Z,91990.09
2023-02-04T19:23:38.939Z,91959.53
2023-02-04T19:26:26.194Z,92032.38
2023-02-04T19:28:55.049Z,92051.34
2023-02-04T19:31:24.019Z,92036.34
2023-02-04T19:33:53.463Z,92015.78
2023-02-04T19:36:38.041Z,92057.25
2023-02-04T19:39:17.686Z,92065.53
2023-02-04T19:41:49.029Z,92010.97
2023-02-04T19:44:36.427Z,91972.75
2023-02-04T19:47:21.561Z,91949.84
2023-02-04T19:49:49.569Z,91898.91
2023-02-04T19:52:37.751Z,91868.75
2023-02-04T19:55:25.563Z,91837.41
2023-02-04T19:57:55.246Z,91806.88
2023-02-04T20:00:37.944Z,91814.53
2023-02-04T20:03:16.328Z,91816.13
2023-02-04T20:05:44.297Z,91834.22
2023-02-04T20:08:42.390Z,91843.31
2023-02-04T20:11:49.164Z,91816.13
2023-02-04T20:14:26.653Z,91791.25
2023-02-04T20:16:57.468Z,91776.66
2023-02-04T20:19:35.498Z,91763.28
2023-02-04T20:22:40.237Z,91751.06
2023-02-04T20:25:47.084Z,91742.00
2023-02-04T20:28:36.977Z,91720.31
2023-02-04T20:31:25.991Z,91719.72
2023-02-04T20:33:55.887Z,91710.47
2023-02-04T20:36:43.313Z,91697.63
2023-02-04T20:39:48.309Z,91693.28
2023-02-04T20:42:30.316Z,91692.94
2023-02-04T20:45:10.615Z,91706.34
2023-02-04T20:47:38.584Z,91688.19
2023-02-04T20:50:36.263Z,91687.59
2023-02-04T20:53:09.284Z,91662.75
2023-02-04T20:55:37.360Z,91649.38
2023-02-04T20:58:17.198Z,91644.47
2023-02-04T21:00:48.014Z,91647.00
2023-02-04T21:03:21.517Z,91654.50
2023-02-04T21:05:50.326Z,91628.09
2023-02-04T21:08:27.627Z,91640.50
2023-02-04T21:10:55.736Z,91607.25
2023-02-04T21:13:25.397Z,91611.56
2023-02-04T21:15:53.628Z,91610.78
2023-02-04T21:18:22.023Z,91617.88
2023-02-04T21:20:50.261Z,91637.97
2023-02-04T21:23:18.929Z,91650.34
2023-02-04T21:25:47.030Z,91681.47
2023-02-04T21:28:15.433Z,91719.16
2023-02-04T21:30:44.926Z,91807.47
2023-02-04T21:33:13.655Z,91850.59
2023-02-04T21:35:42.832Z,91919.69
2023-02-04T21:38:11.108Z,91946.31
2023-02-04T21:40:39.724Z,92028.84
2023-02-04T21:43:08.455Z,92099.91
2023-02-04T21:45:39.585Z,92160.38
2023-02-04T21:48:09.073Z,92167.53
2023-02-04T21:50:38.457Z,92224.84
2023-02-04T21:53:08.083Z,92375.19
2023-02-04T21:55:36.694Z,92486.06
2023-02-04T21:58:05.196Z,92574.81
2023-02-04T22:00:33.529Z,92659.28
2023-02-04T22:03:01.684Z,92684.25
2023-02-04T22:05:31.423Z,92674.69
2023-02-04T22:07:59.975Z,92650.53
2023-02-04T22:10:28.273Z,92681.66
2023-02-04T22:12:56.256Z,92677.88
2023-02-04T22:15:24.779Z,92608.09
2023-02-04T22:17:54.199Z,92562.50
2023-02-04T22:20:25.588Z,92540.31
2023-02-04T22:22:54.912Z,92527.47
2023-02-04T22:25:23.244Z,92489.78
2023-02-04T22:27:53.012Z,92447.59
2023-02-04T22:30:21.323Z,92390.41
2023-02-04T22:32:49.406Z,92329.88
2023-02-04T22:35:17.656Z,92323.97
2023-02-04T22:37:45.417Z,92338.97
2023-02-04T22:40:15.117Z,92346.31
2023-02-04T22:42:43.171Z,92354.63
2023-02-04T22:45:11.366Z,92354.00
2023-02-04T22:47:39.465Z,92357.78
2023-02-04T22:50:08.339Z,92410.78
2023-02-04T22:52:36.776Z,92459.09
2023-02-04T22:55:04.890Z,92458.72
2023-02-04T22:57:34.048Z,92427.44
2023-02-04T23:00:02.176Z,92399.31
2023-02-04T23:02:30.713Z,92362.94
2023-02-04T23:04:58.665Z,92405.03
2023-02-04T23:07:26.672Z,92444.06
2023-02-04T23:09:54.514Z,92526.88
2023-02-04T23:12:22.477Z,92596.41
2023-02-04T23:14:51.818Z,92610.66
2023-02-04T23:17:20.261Z,92623.94
2023-02-04T23:19:48.335Z,92567.28
2023-02-04T23:22:17.340Z,92508.59
2023-02-04T23:24:45.546Z,92571.00
2023-02-04T23:27:13.545Z,92578.19
2023-02-04T23:29:41.688Z,92564.09
2023-02-04T23:32:11.032Z,92618.19
2023-02-04T23:34:39.112Z,92661.22
2023-02-04T23:37:07.085Z,92715.78
2023-02-04T23:39:35.147Z,92744.16
2023-02-04T23:42:03.142Z,92772.13
2023-02-04T23:44:31.112Z,92827.88
2023-02-04T23:46:59.088Z,92858.84
2023-02-04T23:49:28.476Z,92864.44
2023-02-04T23:51:56.348Z,92833.81
2023-02-04T23:54:24.712Z,92817.16
2023-02-04T23:56:53.425Z,92823.53
2023-02-04T23:59:21.311Z,92785.78
